sensor_id;sensor_type;location;lat;lon;timestamp;P1;durP1;ratioP1;P2;durP2;ratioP2
52934;SDS011;38802;50.198;19.796;2024-03-02T00:00:51;42.10;;;24.80;;
52934;SDS011;38802;50.198;19.796;2024-03-02T00:03:40;53.00;;;28.30;;
52934;SDS011;38802;50.198;19.796;2024-03-02T00:06:11;47.40;;;26.50;;
52934;SDS011;38802;50.198;19.796;2024-03-02T00:08:39;49.00;;;25.40;;
52934;SDS011;38802;50.198;19.796;2024-03-02T00:11:08;45.20;;;25.20;;
52934;SDS011;38802;50.198;19.796;2024-03-02T00:13:36;40.90;;;22.50;;
52934;SDS011;38802;50.198;19.796;2024-03-02T00:16:05;47.70;;;24.70;;
52934;SDS011;38802;50.198;19.796;2024-03-02T00:18:34;41.70;;;23.20;;
52934;SDS011;38802;50.198;19.796;2024-03-02T00:21:03;35.70;;;22.50;;
52934;SDS011;38802;50.198;19.796;2024-03-02T00:23:37;46.10;;;25.30;;
52934;SDS011;38802;50.198;19.796;2024-03-02T00:26:06;40.20;;;23.30;;
52934;SDS011;38802;50.198;19.796;2024-03-02T00:28:36;42.30;;;23.80;;
52934;SDS011;38802;50.198;19.796;2024-03-02T00:33:43;37.70;;;22.20;;
52934;SDS011;38802;50.198;19.796;2024-03-02T00:36:17;38.00;;;23.50;;
52934;SDS011;38802;50.198;19.796;2024-03-02T00:38:51;39.20;;;22.00;;
52934;SDS011;38802;50.198;19.796;2024-03-02T00:41:21;36.60;;;22.50;;
52934;SDS011;38802;50.198;19.796;2024-03-02T00:46:30;42.00;;;24.00;;
52934;SDS011;38802;50.198;19.796;2024-03-02T00:49:12;39.50;;;22.40;;
52934;SDS011;38802;50.198;19.796;2024-03-02T00:51:49;40.70;;;22.10;;
52934;SDS011;38802;50.198;19.796;2024-03-02T00:54:20;35.10;;;22.00;;
52934;SDS011;38802;50.198;19.796;2024-03-02T00:56:52;42.40;;;23.10;;
52934;SDS011;38802;50.198;19.796;2024-03-02T00:59:24;40.70;;;22.80;;
52934;SDS011;38802;50.198;19.796;2024-03-02T01:01:52;38.70;;;22.40;;
52934;SDS011;38802;50.198;19.796;2024-03-02T01:04:21;37.80;;;21.80;;
52934;SDS011;38802;50.198;19.796;2024-03-02T01:06:49;39.50;;;21.60;;
52934;SDS011;38802;50.198;19.796;2024-03-02T01:09:18;34.00;;;21.70;;
52934;SDS011;38802;50.198;19.796;2024-03-02T01:11:47;34.70;;;20.20;;
52934;SDS011;38802;50.198;19.796;2024-03-02T01:14:15;34.40;;;20.90;;
52934;SDS011;38802;50.198;19.796;2024-03-02T01:16:43;36.90;;;21.20;;
52934;SDS011;38802;50.198;19.796;2024-03-02T01:19:11;31.50;;;19.60;;
52934;SDS011;38802;50.198;19.796;2024-03-02T01:21:39;36.20;;;19.80;;
52934;SDS011;38802;50.198;19.796;2024-03-02T01:24:08;39.30;;;23.10;;
52934;SDS011;38802;50.198;19.796;2024-03-02T01:26:36;37.40;;;21.70;;
52934;SDS011;38802;50.198;19.796;2024-03-02T01:29:04;36.50;;;22.70;;
52934;SDS011;38802;50.198;19.796;2024-03-02T01:31:32;39.90;;;22.00;;
52934;SDS011;38802;50.198;19.796;2024-03-02T01:34:00;39.60;;;24.00;;
52934;SDS011;38802;50.198;19.796;2024-03-02T01:36:28;39.80;;;23.70;;
52934;SDS011;38802;50.198;19.796;2024-03-02T01:38:56;40.30;;;24.80;;
52934;SDS011;38802;50.198;19.796;2024-03-02T01:41:24;46.10;;;25.00;;
52934;SDS011;38802;50.198;19.796;2024-03-02T01:43:52;39.70;;;24.50;;
52934;SDS011;38802;50.198;19.796;2024-03-02T01:46:21;40.30;;;25.20;;
52934;SDS011;38802;50.198;19.796;2024-03-02T01:49:14;44.30;;;24.10;;
52934;SDS011;38802;50.198;19.796;2024-03-02T01:51:42;40.00;;;24.00;;
52934;SDS011;38802;50.198;19.796;2024-03-02T01:54:10;44.10;;;23.10;;
52934;SDS011;38802;50.198;19.796;2024-03-02T01:56:38;36.80;;;21.80;;
52934;SDS011;38802;50.198;19.796;2024-03-02T01:59:07;36.80;;;23.30;;
52934;SDS011;38802;50.198;19.796;2024-03-02T02:01:35;40.50;;;23.60;;
52934;SDS011;38802;50.198;19.796;2024-03-02T02:04:03;43.40;;;24.50;;
52934;SDS011;38802;50.198;19.796;2024-03-02T02:06:31;40.30;;;24.10;;
52934;SDS011;38802;50.198;19.796;2024-03-02T02:09:00;39.90;;;24.10;;
52934;SDS011;38802;50.198;19.796;2024-03-02T02:11:28;42.70;;;24.80;;
52934;SDS011;38802;50.198;19.796;2024-03-02T02:13:56;43.10;;;26.30;;
52934;SDS011;38802;50.198;19.796;2024-03-02T02:16:24;43.80;;;26.20;;
52934;SDS011;38802;50.198;19.796;2024-03-02T02:18:52;50.60;;;25.40;;
52934;SDS011;38802;50.198;19.796;2024-03-02T02:21:24;46.00;;;26.00;;
52934;SDS011;38802;50.198;19.796;2024-03-02T02:23:52;43.90;;;26.00;;
52934;SDS011;38802;50.198;19.796;2024-03-02T02:26:20;45.40;;;26.60;;
52934;SDS011;38802;50.198;19.796;2024-03-02T02:28:48;51.00;;;27.90;;
52934;SDS011;38802;50.198;19.796;2024-03-02T02:31:16;40.60;;;25.20;;
52934;SDS011;38802;50.198;19.796;2024-03-02T02:33:44;42.40;;;27.30;;
52934;SDS011;38802;50.198;19.796;2024-03-02T02:36:12;49.50;;;25.40;;
52934;SDS011;38802;50.198;19.796;2024-03-02T02:38:42;51.60;;;28.10;;
52934;SDS011;38802;50.198;19.796;2024-03-02T02:41:14;44.10;;;28.00;;
52934;SDS011;38802;50.198;19.796;2024-03-02T02:43:42;50.80;;;28.90;;
52934;SDS011;38802;50.198;19.796;2024-03-02T02:46:10;51.80;;;27.70;;
52934;SDS011;38802;50.198;19.796;2024-03-02T02:48:38;45.70;;;27.60;;
52934;SDS011;38802;50.198;19.796;2024-03-02T02:51:07;37.60;;;24.70;;
52934;SDS011;38802;50.198;19.796;2024-03-02T02:53:35;46.00;;;26.20;;
52934;SDS011;38802;50.198;19.796;2024-03-02T02:56:03;53.60;;;26.60;;
52934;SDS011;38802;50.198;19.796;2024-03-02T02:58:31;45.00;;;27.40;;
52934;SDS011;38802;50.198;19.796;2024-03-02T03:00:59;47.50;;;27.00;;
52934;SDS011;38802;50.198;19.796;2024-03-02T03:03:27;47.00;;;27.20;;
52934;SDS011;38802;50.198;19.796;2024-03-02T03:05:56;46.50;;;26.80;;
52934;SDS011;38802;50.198;19.796;2024-03-02T03:08:24;45.90;;;26.60;;
52934;SDS011;38802;50.198;19.796;2024-03-02T03:10:52;53.00;;;25.50;;
52934;SDS011;38802;50.198;19.796;2024-03-02T03:13:20;38.90;;;25.40;;
52934;SDS011;38802;50.198;19.796;2024-03-02T03:15:48;43.40;;;24.90;;
52934;SDS011;38802;50.198;19.796;2024-03-02T03:18:16;47.90;;;27.60;;
52934;SDS011;38802;50.198;19.796;2024-03-02T03:20:44;46.70;;;26.10;;
52934;SDS011;38802;50.198;19.796;2024-03-02T03:23:13;45.40;;;26.70;;
52934;SDS011;38802;50.198;19.796;2024-03-02T03:25:44;48.90;;;28.00;;
52934;SDS011;38802;50.198;19.796;2024-03-02T03:28:12;48.50;;;26.50;;
52934;SDS011;38802;50.198;19.796;2024-03-02T03:30:40;43.70;;;26.80;;
52934;SDS011;38802;50.198;19.796;2024-03-02T03:33:08;44.90;;;26.50;;
52934;SDS011;38802;50.198;19.796;2024-03-02T03:35:36;45.10;;;26.10;;
52934;SDS011;38802;50.198;19.796;2024-03-02T03:38:04;38.60;;;25.40;;
52934;SDS011;38802;50.198;19.796;2024-03-02T03:40:32;42.00;;;24.80;;
52934;SDS011;38802;50.198;19.796;2024-03-02T03:43:00;38.00;;;25.70;;
52934;SDS011;38802;50.198;19.796;2024-03-02T03:45:29;37.10;;;23.80;;
52934;SDS011;38802;50.198;19.796;2024-03-02T03:47:58;37.80;;;24.90;;
52934;SDS011;38802;50.198;19.796;2024-03-02T03:50:26;42.90;;;25.60;;
52934;SDS011;38802;50.198;19.796;2024-03-02T03:52:54;38.90;;;24.70;;
52934;SDS011;38802;50.198;19.796;2024-03-02T03:55:22;48.20;;;26.40;;
52934;SDS011;38802;50.198;19.796;2024-03-02T03:57:50;40.70;;;25.00;;
52934;SDS011;38802;50.198;19.796;2024-03-02T04:00:18;46.90;;;28.20;;
52934;SDS011;38802;50.198;19.796;2024-03-02T04:02:47;41.30;;;25.50;;
52934;SDS011;38802;50.198;19.796;2024-03-02T04:05:15;42.60;;;27.20;;
52934;SDS011;38802;50.198;19.796;2024-03-02T04:07:43;45.10;;;25.30;;
52934;SDS011;38802;50.198;19.796;2024-03-02T04:10:11;49.00;;;28.70;;
52934;SDS011;38802;50.198;19.796;2024-03-02T04:12:39;41.50;;;25.80;;
52934;SDS011;38802;50.198;19.796;2024-03-02T04:15:08;41.70;;;25.50;;
52934;SDS011;38802;50.198;19.796;2024-03-02T04:17:36;40.40;;;24.00;;
52934;SDS011;38802;50.198;19.796;2024-03-02T04:20:04;41.90;;;24.60;;
52934;SDS011;38802;50.198;19.796;2024-03-02T04:22:33;37.60;;;23.70;;
52934;SDS011;38802;50.198;19.796;2024-03-02T04:25:02;48.60;;;23.20;;
52934;SDS011;38802;50.198;19.796;2024-03-02T04:27:32;35.90;;;21.90;;
52934;SDS011;38802;50.198;19.796;2024-03-02T04:30:01;35.10;;;21.10;;
52934;SDS011;38802;50.198;19.796;2024-03-02T04:32:30;38.50;;;21.50;;
52934;SDS011;38802;50.198;19.796;2024-03-02T04:34:59;35.00;;;21.30;;
52934;SDS011;38802;50.198;19.796;2024-03-02T04:37:27;38.00;;;23.20;;
52934;SDS011;38802;50.198;19.796;2024-03-02T04:39:55;34.50;;;21.30;;
52934;SDS011;38802;50.198;19.796;2024-03-02T04:42:23;30.80;;;19.30;;
52934;SDS011;38802;50.198;19.796;2024-03-02T04:44:52;36.40;;;20.90;;
52934;SDS011;38802;50.198;19.796;2024-03-02T04:47:20;35.20;;;22.80;;
52934;SDS011;38802;50.198;19.796;2024-03-02T04:49:48;35.70;;;20.50;;
52934;SDS011;38802;50.198;19.796;2024-03-02T04:52:16;39.30;;;21.90;;
52934;SDS011;38802;50.198;19.796;2024-03-02T04:54:44;37.60;;;20.50;;
52934;SDS011;38802;50.198;19.796;2024-03-02T04:57:31;36.50;;;22.30;;
52934;SDS011;38802;50.198;19.796;2024-03-02T04:59:59;39.80;;;23.30;;
52934;SDS011;38802;50.198;19.796;2024-03-02T05:02:28;36.40;;;22.70;;
52934;SDS011;38802;50.198;19.796;2024-03-02T05:04:56;36.20;;;23.20;;
52934;SDS011;38802;50.198;19.796;2024-03-02T05:07:24;39.40;;;23.10;;
52934;SDS011;38802;50.198;19.796;2024-03-02T05:09:52;40.00;;;24.50;;
52934;SDS011;38802;50.198;19.796;2024-03-02T05:12:20;40.50;;;24.40;;
52934;SDS011;38802;50.198;19.796;2024-03-02T05:15:17;37.10;;;22.30;;
52934;SDS011;38802;50.198;19.796;2024-03-02T05:17:45;38.00;;;23.00;;
52934;SDS011;38802;50.198;19.796;2024-03-02T05:20:13;37.20;;;23.90;;
52934;SDS011;38802;50.198;19.796;2024-03-02T05:22:42;45.90;;;28.90;;
52934;SDS011;38802;50.198;19.796;2024-03-02T05:25:10;43.50;;;25.90;;
52934;SDS011;38802;50.198;19.796;2024-03-02T05:27:38;42.60;;;24.40;;
52934;SDS011;38802;50.198;19.796;2024-03-02T05:30:07;38.90;;;23.10;;
52934;SDS011;38802;50.198;19.796;2024-03-02T05:32:35;45.20;;;26.00;;
52934;SDS011;38802;50.198;19.796;2024-03-02T05:35:04;40.00;;;25.40;;
52934;SDS011;38802;50.198;19.796;2024-03-02T05:37:33;37.50;;;24.50;;
52934;SDS011;38802;50.198;19.796;2024-03-02T05:40:01;35.50;;;22.80;;
52934;SDS011;38802;50.198;19.796;2024-03-02T05:42:30;40.70;;;23.60;;
52934;SDS011;38802;50.198;19.796;2024-03-02T05:44:58;42.40;;;22.90;;
52934;SDS011;38802;50.198;19.796;2024-03-02T05:47:26;36.20;;;23.10;;
52934;SDS011;38802;50.198;19.796;2024-03-02T05:49:55;39.60;;;23.50;;
52934;SDS011;38802;50.198;19.796;2024-03-02T05:52:23;39.50;;;23.50;;
52934;SDS011;38802;50.198;19.796;2024-03-02T05:54:52;36.80;;;23.10;;
52934;SDS011;38802;50.198;19.796;2024-03-02T05:57:20;34.20;;;22.90;;
52934;SDS011;38802;50.198;19.796;2024-03-02T06:00:00;36.50;;;23.80;;
52934;SDS011;38802;50.198;19.796;2024-03-02T06:02:28;36.90;;;23.40;;
52934;SDS011;38802;50.198;19.796;2024-03-02T06:04:56;40.40;;;22.90;;
52934;SDS011;38802;50.198;19.796;2024-03-02T06:07:24;40.30;;;23.80;;
52934;SDS011;38802;50.198;19.796;2024-03-02T06:09:52;37.30;;;23.80;;
52934;SDS011;38802;50.198;19.796;2024-03-02T06:12:20;42.80;;;24.50;;
52934;SDS011;38802;50.198;19.796;2024-03-02T06:14:48;38.90;;;24.40;;
52934;SDS011;38802;50.198;19.796;2024-03-02T06:17:16;41.40;;;24.50;;
52934;SDS011;38802;50.198;19.796;2024-03-02T06:19:44;37.90;;;25.20;;
52934;SDS011;38802;50.198;19.796;2024-03-02T06:22:12;47.70;;;25.70;;
52934;SDS011;38802;50.198;19.796;2024-03-02T06:24:40;38.10;;;23.90;;
52934;SDS011;38802;50.198;19.796;2024-03-02T06:27:08;37.90;;;25.40;;
52934;SDS011;38802;50.198;19.796;2024-03-02T06:29:36;49.00;;;27.10;;
52934;SDS011;38802;50.198;19.796;2024-03-02T06:32:05;35.60;;;23.50;;
52934;SDS011;38802;50.198;19.796;2024-03-02T06:34:33;47.30;;;24.00;;
52934;SDS011;38802;50.198;19.796;2024-03-02T06:37:01;47.90;;;26.10;;
52934;SDS011;38802;50.198;19.796;2024-03-02T06:39:30;40.90;;;22.30;;
52934;SDS011;38802;50.198;19.796;2024-03-02T06:41:59;37.50;;;24.30;;
52934;SDS011;38802;50.198;19.796;2024-03-02T06:44:27;38.20;;;23.70;;
52934;SDS011;38802;50.198;19.796;2024-03-02T06:46:56;36.20;;;24.40;;
52934;SDS011;38802;50.198;19.796;2024-03-02T06:49:24;43.40;;;23.20;;
52934;SDS011;38802;50.198;19.796;2024-03-02T06:51:52;38.20;;;24.30;;
52934;SDS011;38802;50.198;19.796;2024-03-02T06:54:20;37.50;;;23.60;;
52934;SDS011;38802;50.198;19.796;2024-03-02T06:56:48;37.70;;;22.80;;
52934;SDS011;38802;50.198;19.796;2024-03-02T06:59:16;39.10;;;24.60;;
52934;SDS011;38802;50.198;19.796;2024-03-02T07:01:44;37.30;;;23.60;;
52934;SDS011;38802;50.198;19.796;2024-03-02T07:04:12;38.60;;;22.80;;
52934;SDS011;38802;50.198;19.796;2024-03-02T07:06:40;34.30;;;22.90;;
52934;SDS011;38802;50.198;19.796;2024-03-02T07:09:08;38.00;;;24.00;;
52934;SDS011;38802;50.198;19.796;2024-03-02T07:11:38;39.30;;;24.10;;
52934;SDS011;38802;50.198;19.796;2024-03-02T07:14:06;33.90;;;23.10;;
52934;SDS011;38802;50.198;19.796;2024-03-02T07:16:37;53.10;;;30.90;;
52934;SDS011;38802;50.198;19.796;2024-03-02T07:19:06;71.40;;;37.50;;
52934;SDS011;38802;50.198;19.796;2024-03-02T07:21:34;38.60;;;24.70;;
52934;SDS011;38802;50.198;19.796;2024-03-02T07:24:03;39.00;;;23.90;;
52934;SDS011;38802;50.198;19.796;2024-03-02T07:26:32;49.80;;;25.00;;
52934;SDS011;38802;50.198;19.796;2024-03-02T07:29:03;37.40;;;24.30;;
52934;SDS011;38802;50.198;19.796;2024-03-02T07:31:31;37.60;;;24.00;;
52934;SDS011;38802;50.198;19.796;2024-03-02T07:33:59;35.50;;;23.60;;
52934;SDS011;38802;50.198;19.796;2024-03-02T07:36:27;38.00;;;23.90;;
52934;SDS011;38802;50.198;19.796;2024-03-02T07:38:55;36.70;;;23.10;;
52934;SDS011;38802;50.198;19.796;2024-03-02T07:41:24;34.70;;;23.30;;
52934;SDS011;38802;50.198;19.796;2024-03-02T07:43:52;37.00;;;23.20;;
52934;SDS011;38802;50.198;19.796;2024-03-02T07:46:20;33.30;;;21.90;;
52934;SDS011;38802;50.198;19.796;2024-03-02T07:48:49;33.80;;;23.00;;
52934;SDS011;38802;50.198;19.796;2024-03-02T07:51:19;38.40;;;23.90;;
52934;SDS011;38802;50.198;19.796;2024-03-02T07:53:47;37.90;;;23.50;;
52934;SDS011;38802;50.198;19.796;2024-03-02T07:56:16;34.80;;;22.30;;
52934;SDS011;38802;50.198;19.796;2024-03-02T07:58:49;40.30;;;23.80;;
52934;SDS011;38802;50.198;19.796;2024-03-02T08:01:18;42.60;;;24.30;;
52934;SDS011;38802;50.198;19.796;2024-03-02T08:03:46;36.80;;;24.70;;
52934;SDS011;38802;50.198;19.796;2024-03-02T08:06:18;36.70;;;24.00;;
52934;SDS011;38802;50.198;19.796;2024-03-02T08:08:49;39.10;;;27.50;;
52934;SDS011;38802;50.198;19.796;2024-03-02T08:11:18;45.90;;;28.80;;
52934;SDS011;38802;50.198;19.796;2024-03-02T08:13:46;34.10;;;22.40;;
52934;SDS011;38802;50.198;19.796;2024-03-02T08:16:17;32.20;;;19.90;;
52934;SDS011;38802;50.198;19.796;2024-03-02T08:18:49;31.20;;;18.40;;
52934;SDS011;38802;50.198;19.796;2024-03-02T08:21:17;33.70;;;19.70;;
52934;SDS011;38802;50.198;19.796;2024-03-02T08:23:46;26.50;;;16.80;;
52934;SDS011;38802;50.198;19.796;2024-03-02T08:26:14;22.80;;;15.60;;
52934;SDS011;38802;50.198;19.796;2024-03-02T08:28:42;21.60;;;15.00;;
52934;SDS011;38802;50.198;19.796;2024-03-02T08:31:10;25.60;;;19.20;;
52934;SDS011;38802;50.198;19.796;2024-03-02T08:33:39;31.60;;;19.90;;
52934;SDS011;38802;50.198;19.796;2024-03-02T08:36:08;32.40;;;20.70;;
52934;SDS011;38802;50.198;19.796;2024-03-02T08:38:37;31.60;;;21.90;;
52934;SDS011;38802;50.198;19.796;2024-03-02T08:41:06;32.70;;;20.90;;
52934;SDS011;38802;50.198;19.796;2024-03-02T08:43:34;32.30;;;21.00;;
52934;SDS011;38802;50.198;19.796;2024-03-02T08:46:03;32.40;;;19.80;;
52934;SDS011;38802;50.198;19.796;2024-03-02T08:48:31;33.70;;;21.10;;
52934;SDS011;38802;50.198;19.796;2024-03-02T08:50:59;31.40;;;19.80;;
52934;SDS011;38802;50.198;19.796;2024-03-02T08:53:28;26.80;;;19.70;;
52934;SDS011;38802;50.198;19.796;2024-03-02T08:55:56;34.70;;;19.50;;
52934;SDS011;38802;50.198;19.796;2024-03-02T08:58:26;31.20;;;20.20;;
52934;SDS011;38802;50.198;19.796;2024-03-02T09:00:55;32.70;;;21.80;;
52934;SDS011;38802;50.198;19.796;2024-03-02T09:03:23;38.40;;;24.30;;
52934;SDS011;38802;50.198;19.796;2024-03-02T09:05:51;38.50;;;21.30;;
52934;SDS011;38802;50.198;19.796;2024-03-02T09:08:19;32.00;;;20.80;;
52934;SDS011;38802;50.198;19.796;2024-03-02T09:10:47;32.00;;;21.30;;
52934;SDS011;38802;50.198;19.796;2024-03-02T09:13:15;32.80;;;21.80;;
52934;SDS011;38802;50.198;19.796;2024-03-02T09:15:43;38.50;;;21.10;;
52934;SDS011;38802;50.198;19.796;2024-03-02T09:18:12;39.60;;;21.30;;
52934;SDS011;38802;50.198;19.796;2024-03-02T09:20:41;35.00;;;20.00;;
52934;SDS011;38802;50.198;19.796;2024-03-02T09:23:09;33.10;;;20.80;;
52934;SDS011;38802;50.198;19.796;2024-03-02T09:25:37;30.00;;;21.00;;
52934;SDS011;38802;50.198;19.796;2024-03-02T09:28:05;32.70;;;20.70;;
52934;SDS011;38802;50.198;19.796;2024-03-02T09:30:34;34.40;;;20.10;;
52934;SDS011;38802;50.198;19.796;2024-03-02T09:33:03;29.40;;;20.20;;
52934;SDS011;38802;50.198;19.796;2024-03-02T09:35:34;37.90;;;20.70;;
52934;SDS011;38802;50.198;19.796;2024-03-02T09:38:02;35.40;;;21.10;;
52934;SDS011;38802;50.198;19.796;2024-03-02T09:40:31;33.40;;;20.80;;
52934;SDS011;38802;50.198;19.796;2024-03-02T09:42:59;34.60;;;22.20;;
52934;SDS011;38802;50.198;19.796;2024-03-02T09:45:28;28.70;;;19.90;;
52934;SDS011;38802;50.198;19.796;2024-03-02T09:47:57;35.50;;;21.30;;
52934;SDS011;38802;50.198;19.796;2024-03-02T09:50:25;28.30;;;20.50;;
52934;SDS011;38802;50.198;19.796;2024-03-02T09:52:53;36.30;;;20.40;;
52934;SDS011;38802;50.198;19.796;2024-03-02T09:55:22;34.50;;;21.10;;
52934;SDS011;38802;50.198;19.796;2024-03-02T09:57:50;33.30;;;20.50;;
52934;SDS011;38802;50.198;19.796;2024-03-02T10:00:19;34.70;;;20.80;;
52934;SDS011;38802;50.198;19.796;2024-03-02T10:02:47;36.80;;;22.00;;
52934;SDS011;38802;50.198;19.796;2024-03-02T10:05:23;37.40;;;22.40;;
52934;SDS011;38802;50.198;19.796;2024-03-02T10:08:00;30.40;;;20.80;;
52934;SDS011;38802;50.198;19.796;2024-03-02T10:10:39;35.00;;;22.50;;
52934;SDS011;38802;50.198;19.796;2024-03-02T10:13:10;32.20;;;21.80;;
52934;SDS011;38802;50.198;19.796;2024-03-02T10:15:40;38.60;;;23.30;;
52934;SDS011;38802;50.198;19.796;2024-03-02T10:18:09;39.50;;;23.80;;
52934;SDS011;38802;50.198;19.796;2024-03-02T10:20:40;35.00;;;23.60;;
52934;SDS011;38802;50.198;19.796;2024-03-02T10:23:09;37.90;;;23.30;;
52934;SDS011;38802;50.198;19.796;2024-03-02T10:25:39;34.20;;;23.70;;
52934;SDS011;38802;50.198;19.796;2024-03-02T10:28:21;34.50;;;24.40;;
52934;SDS011;38802;50.198;19.796;2024-03-02T10:30:49;37.80;;;24.10;;
52934;SDS011;38802;50.198;19.796;2024-03-02T10:33:19;37.70;;;24.80;;
52934;SDS011;38802;50.198;19.796;2024-03-02T10:35:49;37.80;;;24.30;;
52934;SDS011;38802;50.198;19.796;2024-03-02T10:38:18;41.90;;;22.70;;
52934;SDS011;38802;50.198;19.796;2024-03-02T10:40:47;41.10;;;24.10;;
52934;SDS011;38802;50.198;19.796;2024-03-02T10:43:16;43.40;;;22.70;;
52934;SDS011;38802;50.198;19.796;2024-03-02T10:45:46;34.20;;;22.60;;
52934;SDS011;38802;50.198;19.796;2024-03-02T10:48:18;46.00;;;23.50;;
52934;SDS011;38802;50.198;19.796;2024-03-02T10:50:47;39.10;;;23.50;;
52934;SDS011;38802;50.198;19.796;2024-03-02T10:53:15;35.80;;;24.00;;
52934;SDS011;38802;50.198;19.796;2024-03-02T10:55:43;37.50;;;23.30;;
52934;SDS011;38802;50.198;19.796;2024-03-02T10:58:12;33.80;;;21.30;;
52934;SDS011;38802;50.198;19.796;2024-03-02T11:00:43;38.70;;;23.30;;
52934;SDS011;38802;50.198;19.796;2024-03-02T11:03:13;35.80;;;24.40;;
52934;SDS011;38802;50.198;19.796;2024-03-02T11:05:43;43.20;;;24.50;;
52934;SDS011;38802;50.198;19.796;2024-03-02T11:08:13;40.80;;;23.40;;
52934;SDS011;38802;50.198;19.796;2024-03-02T11:10:48;35.90;;;23.70;;
52934;SDS011;38802;50.198;19.796;2024-03-02T11:13:22;38.60;;;23.90;;
52934;SDS011;38802;50.198;19.796;2024-03-02T11:15:53;36.40;;;23.50;;
52934;SDS011;38802;50.198;19.796;2024-03-02T11:18:26;33.70;;;22.40;;
52934;SDS011;38802;50.198;19.796;2024-03-02T11:20:55;39.20;;;22.00;;
52934;SDS011;38802;50.198;19.796;2024-03-02T11:23:33;28.30;;;20.30;;
52934;SDS011;38802;50.198;19.796;2024-03-02T11:26:23;34.30;;;21.40;;
52934;SDS011;38802;50.198;19.796;2024-03-02T11:28:51;34.00;;;21.70;;
52934;SDS011;38802;50.198;19.796;2024-03-02T11:31:20;35.60;;;22.50;;
52934;SDS011;38802;50.198;19.796;2024-03-02T11:33:48;35.50;;;23.90;;
52934;SDS011;38802;50.198;19.796;2024-03-02T11:36:16;35.60;;;22.20;;
52934;SDS011;38802;50.198;19.796;2024-03-02T11:38:45;27.10;;;20.30;;
52934;SDS011;38802;50.198;19.796;2024-03-02T11:41:15;30.20;;;18.40;;
52934;SDS011;38802;50.198;19.796;2024-03-02T11:43:43;33.70;;;17.60;;
52934;SDS011;38802;50.198;19.796;2024-03-02T11:46:12;24.60;;;18.00;;
52934;SDS011;38802;50.198;19.796;2024-03-02T11:48:43;27.40;;;17.30;;
52934;SDS011;38802;50.198;19.796;2024-03-02T11:51:11;36.30;;;22.20;;
52934;SDS011;38802;50.198;19.796;2024-03-02T11:53:39;33.10;;;20.30;;
52934;SDS011;38802;50.198;19.796;2024-03-02T11:56:10;41.80;;;23.00;;
52934;SDS011;38802;50.198;19.796;2024-03-02T11:58:40;37.90;;;24.00;;
52934;SDS011;38802;50.198;19.796;2024-03-02T12:01:10;39.30;;;22.80;;
52934;SDS011;38802;50.198;19.796;2024-03-02T12:03:38;39.60;;;23.50;;
52934;SDS011;38802;50.198;19.796;2024-03-02T12:06:07;39.00;;;25.20;;
52934;SDS011;38802;50.198;19.796;2024-03-02T12:08:36;38.40;;;25.00;;
52934;SDS011;38802;50.198;19.796;2024-03-02T12:11:04;40.50;;;24.60;;
52934;SDS011;38802;50.198;19.796;2024-03-02T12:13:34;39.80;;;25.80;;
52934;SDS011;38802;50.198;19.796;2024-03-02T12:16:02;40.80;;;25.10;;
52934;SDS011;38802;50.198;19.796;2024-03-02T12:18:31;40.90;;;25.40;;
52934;SDS011;38802;50.198;19.796;2024-03-02T12:20:59;42.30;;;26.20;;
52934;SDS011;38802;50.198;19.796;2024-03-02T12:23:27;43.00;;;25.70;;
52934;SDS011;38802;50.198;19.796;2024-03-02T12:25:55;41.00;;;25.30;;
52934;SDS011;38802;50.198;19.796;2024-03-02T12:28:24;43.70;;;26.00;;
52934;SDS011;38802;50.198;19.796;2024-03-02T12:30:52;44.50;;;26.00;;
52934;SDS011;38802;50.198;19.796;2024-03-02T12:33:21;39.60;;;25.80;;
52934;SDS011;38802;50.198;19.796;2024-03-02T12:35:49;46.40;;;25.40;;
52934;SDS011;38802;50.198;19.796;2024-03-02T12:38:22;45.90;;;27.40;;
52934;SDS011;38802;50.198;19.796;2024-03-02T12:40:57;44.40;;;27.30;;
52934;SDS011;38802;50.198;19.796;2024-03-02T12:43:29;46.70;;;26.30;;
52934;SDS011;38802;50.198;19.796;2024-03-02T12:45:59;41.80;;;26.90;;
52934;SDS011;38802;50.198;19.796;2024-03-02T12:48:27;44.50;;;28.40;;
52934;SDS011;38802;50.198;19.796;2024-03-02T12:50:55;50.00;;;30.10;;
52934;SDS011;38802;50.198;19.796;2024-03-02T12:53:23;51.10;;;29.70;;
52934;SDS011;38802;50.198;19.796;2024-03-02T12:55:52;53.00;;;30.10;;
52934;SDS011;38802;50.198;19.796;2024-03-02T12:58:21;49.80;;;29.80;;
52934;SDS011;38802;50.198;19.796;2024-03-02T13:00:50;50.60;;;31.20;;
52934;SDS011;38802;50.198;19.796;2024-03-02T13:03:52;50.70;;;29.90;;
52934;SDS011;38802;50.198;19.796;2024-03-02T13:07:10;45.00;;;29.20;;
52934;SDS011;38802;50.198;19.796;2024-03-02T13:09:42;45.30;;;27.50;;
52934;SDS011;38802;50.198;19.796;2024-03-02T13:12:11;47.10;;;28.30;;
52934;SDS011;38802;50.198;19.796;2024-03-02T13:14:39;52.30;;;30.90;;
52934;SDS011;38802;50.198;19.796;2024-03-02T13:17:11;48.70;;;28.90;;
52934;SDS011;38802;50.198;19.796;2024-03-02T13:22:42;51.60;;;28.70;;
52934;SDS011;38802;50.198;19.796;2024-03-02T13:25:10;42.20;;;25.90;;
52934;SDS011;38802;50.198;19.796;2024-03-02T13:27:39;48.70;;;25.10;;
52934;SDS011;38802;50.198;19.796;2024-03-02T13:30:08;37.80;;;24.30;;
52934;SDS011;38802;50.198;19.796;2024-03-02T13:32:36;40.00;;;24.00;;
52934;SDS011;38802;50.198;19.796;2024-03-02T13:35:05;35.90;;;23.20;;
52934;SDS011;38802;50.198;19.796;2024-03-02T13:37:33;33.70;;;23.00;;
52934;SDS011;38802;50.198;19.796;2024-03-02T13:40:01;39.50;;;23.90;;
52934;SDS011;38802;50.198;19.796;2024-03-02T13:42:32;31.40;;;21.70;;
52934;SDS011;38802;50.198;19.796;2024-03-02T13:45:00;36.00;;;22.50;;
52934;SDS011;38802;50.198;19.796;2024-03-02T13:47:28;35.70;;;23.50;;
52934;SDS011;38802;50.198;19.796;2024-03-02T13:49:56;36.00;;;22.40;;
52934;SDS011;38802;50.198;19.796;2024-03-02T13:52:24;28.50;;;20.30;;
52934;SDS011;38802;50.198;19.796;2024-03-02T13:54:54;32.30;;;20.30;;
52934;SDS011;38802;50.198;19.796;2024-03-02T13:57:22;32.20;;;21.60;;
52934;SDS011;38802;50.198;19.796;2024-03-02T13:59:54;32.50;;;21.30;;
52934;SDS011;38802;50.198;19.796;2024-03-02T14:02:22;38.40;;;22.90;;
52934;SDS011;38802;50.198;19.796;2024-03-02T14:04:50;38.80;;;23.10;;
52934;SDS011;38802;50.198;19.796;2024-03-02T14:07:18;37.60;;;23.40;;
52934;SDS011;38802;50.198;19.796;2024-03-02T14:09:46;40.70;;;22.30;;
52934;SDS011;38802;50.198;19.796;2024-03-02T14:12:14;39.10;;;23.50;;
52934;SDS011;38802;50.198;19.796;2024-03-02T14:14:42;46.80;;;26.00;;
52934;SDS011;38802;50.198;19.796;2024-03-02T14:17:10;37.40;;;25.50;;
52934;SDS011;38802;50.198;19.796;2024-03-02T14:19:42;43.70;;;25.20;;
52934;SDS011;38802;50.198;19.796;2024-03-02T14:22:10;44.60;;;25.80;;
52934;SDS011;38802;50.198;19.796;2024-03-02T14:24:41;41.60;;;25.80;;
52934;SDS011;38802;50.198;19.796;2024-03-02T14:27:11;39.70;;;25.70;;
52934;SDS011;38802;50.198;19.796;2024-03-02T14:29:55;41.60;;;25.80;;